Time;durP1;ratioP1;P1;durP2;ratioP2;P2;SDS_P1;SDS_P2;PMS_P1;PMS_P2;Temp;Humidity;BMP_temperature;BMP_pressure;BME280_temperature;BME280_humidity;BME280_pressure;Samples;Min_cycle;Max_cycle;Signal;HPM_P1;HPM_P2
2022/02/04 00:01:31;;;;;;;13.88;9.35;;;9.20;99.90;;;;;;5055628;28;20191;-88
2022/02/04 00:07:00;;;;;;;10.80;8.98;;;9.00;99.90;;;;;;5057095;28;20182;-82
2022/02/04 00:28:18;;;;;;;8.65;7.53;;;9.30;99.90;;;;;;5066830;28;20225;-82
2022/02/04 00:30:48;;;;;;;8.05;6.43;;;9.30;99.90;;;;;;5078484;28;20199;-79
2022/02/04 00:33:17;;;;;;;9.60;7.20;;;9.30;99.90;;;;;;5059710;28;20187;-78
2022/02/04 00:40:41;;;;;;;6.93;6.22;;;9.20;99.90;;;;;;5056817;28;20171;-90
2022/02/04 00:43:11;;;;;;;9.00;7.10;;;9.20;99.90;;;;;;5055572;28;20183;-87
2022/02/04 00:45:48;;;;;;;9.70;6.18;;;9.30;99.90;;;;;;5054958;28;20163;-78
2022/02/04 00:50:56;;;;;;;7.97;6.82;;;9.20;99.90;;;;;;5055547;28;20215;-93
2022/02/04 00:53:32;;;;;;;12.55;6.80;;;9.20;99.90;;;;;;5055931;28;20234;-82
2022/02/04 00:56:10;;;;;;;6.85;5.68;;;9.30;99.90;;;;;;5056200;28;20308;-83
2022/02/04 01:26:07;;;;;;;5.32;4.82;;;9.10;99.90;;;;;;5054874;28;20217;-78
2022/02/04 01:28:35;;;;;;;6.03;5.32;;;9.00;99.90;;;;;;5053740;28;20228;-78
2022/02/04 01:31:01;;;;;;;5.88;5.38;;;9.10;99.90;;;;;;5054157;28;20572;-88
2022/02/04 01:33:28;;;;;;;8.68;5.85;;;9.30;99.90;;;;;;5054280;28;20179;-78
2022/02/04 01:35:55;;;;;;;14.80;5.35;;;9.30;99.90;;;;;;5052740;28;20709;-78
2022/02/04 01:38:22;;;;;;;6.10;5.28;;;9.30;99.90;;;;;;5054048;28;20163;-87
2022/02/04 01:40:48;;;;;;;6.28;5.10;;;9.20;99.90;;;;;;5054318;28;20338;-79
2022/02/04 01:43:20;;;;;;;7.45;5.15;;;9.20;99.90;;;;;;5054065;28;20707;-78
2022/02/04 01:45:46;;;;;;;6.43;5.05;;;9.10;99.90;;;;;;5054020;28;20170;-79
2022/02/04 01:48:12;;;;;;;5.32;4.53;;;9.10;99.90;;;;;;5053915;28;20172;-78
2022/02/04 01:50:38;;;;;;;4.35;3.95;;;9.20;99.90;;;;;;5053998;28;20234;-79
2022/02/04 01:53:04;;;;;;;4.90;4.50;;;9.10;99.90;;;;;;5054180;28;20253;-79
2022/02/04 01:55:30;;;;;;;5.13;4.63;;;9.20;99.90;;;;;;5054137;28;20232;-79
2022/02/04 01:57:56;;;;;;;6.43;4.55;;;9.30;99.90;;;;;;5052335;28;20168;-78
2022/02/04 02:00:22;;;;;;;7.25;4.20;;;9.30;99.90;;;;;;5053125;28;20250;-82
2022/02/04 02:02:49;;;;;;;6.45;3.67;;;9.40;99.90;;;;;;5053574;28;20229;-81
2022/02/04 02:05:15;;;;;;;5.32;4.53;;;9.40;99.90;;;;;;5053707;28;20262;-78
2022/02/04 02:07:47;;;;;;;4.03;3.55;;;9.50;99.90;;;;;;5053728;28;20195;-80
2022/02/04 02:10:19;;;;;;;5.05;3.60;;;9.50;99.90;;;;;;5052494;28;20217;-79
2022/02/04 02:12:56;;;;;;;3.85;3.30;;;9.40;99.90;;;;;;5052445;28;20186;-78
2022/02/04 02:45:11;;;;;;;9.82;4.45;;;9.30;99.90;;;;;;5053555;28;20174;-79
2022/02/04 03:03:02;;;;;;;5.40;4.80;;;9.40;99.90;;;;;;5053910;28;20659;-91
2022/02/04 03:05:27;;;;;;;5.25;4.53;;;9.30;99.90;;;;;;5054273;28;20163;-80
2022/02/04 03:07:53;;;;;;;6.63;4.28;;;9.10;99.90;;;;;;5054365;28;20171;-84
2022/02/04 03:10:19;;;;;;;4.43;4.03;;;9.20;99.90;;;;;;5054183;28;20236;-82
2022/02/04 03:12:45;;;;;;;5.38;4.10;;;9.10;99.90;;;;;;5054135;28;20659;-85
2022/02/04 03:15:11;;;;;;;4.45;4.03;;;9.20;99.90;;;;;;5056686;28;20178;-87
2022/02/04 03:17:39;;;;;;;7.78;3.90;;;9.30;99.90;;;;;;5058860;28;20177;-83
2022/02/04 03:20:08;;;;;;;4.28;3.88;;;9.20;99.90;;;;;;5057944;28;20163;-91
2022/02/04 03:22:35;;;;;;;4.40;2.92;;;9.40;99.90;;;;;;5056871;28;20637;-90
2022/02/04 03:25:05;;;;;;;3.08;2.78;;;9.40;99.90;;;;;;5057876;28;20163;-88
2022/02/04 03:27:46;;;;;;;2.88;2.63;;;9.40;99.90;;;;;;5057409;28;20528;-77
2022/02/04 03:30:25;;;;;;;4.88;3.17;;;9.20;99.90;;;;;;5056940;28;20955;-78
2022/02/04 03:32:55;;;;;;;9.60;2.97;;;9.20;99.90;;;;;;5057935;28;20194;-79
2022/02/04 03:35:22;;;;;;;3.88;3.15;;;9.40;99.90;;;;;;5057681;28;20163;-85
2022/02/04 03:37:50;;;;;;;4.03;3.38;;;9.40;99.90;;;;;;5058791;28;20237;-80
2022/02/04 03:40:17;;;;;;;3.63;3.10;;;9.50;99.90;;;;;;5063407;28;20163;-81
2022/02/04 03:42:47;;;;;;;4.97;3.17;;;9.40;99.90;;;;;;5064254;28;20199;-78
2022/02/04 03:45:14;;;;;;;3.22;2.90;;;9.30;99.90;;;;;;5068108;28;20174;-78
2022/02/04 03:47:40;;;;;;;2.85;2.55;;;9.30;99.90;;;;;;5062642;28;20163;-87
2022/02/04 03:50:06;;;;;;;4.20;3.30;;;9.30;99.90;;;;;;5057084;28;20198;-81
2022/02/04 03:52:32;;;;;;;3.63;3.30;;;9.30;99.90;;;;;;5056711;28;20659;-84
2022/02/04 03:54:58;;;;;;;4.50;3.35;;;9.40;99.90;;;;;;5056622;28;20197;-79
2022/02/04 03:57:24;;;;;;;3.30;3.00;;;9.20;99.90;;;;;;5056733;28;20171;-79
2022/02/04 03:59:49;;;;;;;4.00;3.13;;;9.20;99.90;;;;;;5065459;28;20164;-78
2022/02/04 04:02:15;;;;;;;4.15;3.75;;;9.10;99.90;;;;;;5067455;28;20175;-77
2022/02/04 04:04:41;;;;;;;3.75;3.45;;;9.00;99.90;;;;;;5065282;28;20177;-78
2022/02/04 04:07:07;;;;;;;6.30;3.72;;;9.00;99.90;;;;;;5065886;28;20178;-77
2022/02/04 04:09:36;;;;;;;3.38;3.08;;;9.00;99.90;;;;;;5068325;28;20158;-78
2022/02/04 04:12:02;;;;;;;3.95;3.08;;;9.00;99.90;;;;;;5069866;28;20213;-78
2022/02/04 04:14:28;;;;;;;4.00;3.60;;;9.10;99.90;;;;;;5072976;28;20191;-79
2022/02/04 04:16:53;;;;;;;5.43;2.72;;;9.30;99.90;;;;;;5070543;28;20163;-79
2022/02/04 04:19:19;;;;;;;4.85;2.80;;;9.20;99.90;;;;;;5076162;28;20167;-78
2022/02/04 04:21:46;;;;;;;4.50;3.08;;;9.30;99.90;;;;;;5073954;28;20203;-80
2022/02/04 04:24:14;;;;;;;3.50;3.20;;;9.20;99.90;;;;;;5070383;28;20176;-79
2022/02/04 04:26:43;;;;;;;6.78;3.33;;;9.20;99.90;;;;;;5071106;28;20231;-80
2022/02/04 04:29:09;;;;;;;3.53;3.22;;;9.40;99.90;;;;;;5073861;28;20179;-78
2022/02/04 04:31:36;;;;;;;4.20;3.08;;;9.60;99.90;;;;;;5066224;28;20221;-77
2022/02/04 04:34:02;;;;;;;3.35;3.05;;;9.60;99.90;;;;;;5069191;28;20143;-78
2022/02/04 04:36:29;;;;;;;3.67;3.35;;;9.50;99.90;;;;;;5064494;28;20163;-78
2022/02/04 04:39:11;;;;;;;3.95;3.13;;;9.50;99.90;;;;;;5063995;28;20167;-77
2022/02/04 04:41:53;;;;;;;9.57;3.72;;;9.50;99.90;;;;;;5060561;28;20170;-80
2022/02/04 04:45:03;;;;;;;4.03;3.63;;;9.60;99.90;;;;;;5059435;28;20189;-77
2022/02/04 05:26:19;;;;;;;7.13;6.40;;;9.50;99.90;;;;;;5055326;28;20185;-78
2022/02/04 05:31:19;;;;;;;9.13;5.90;;;9.50;99.90;;;;;;5056194;28;20214;-78
2022/02/04 05:33:45;;;;;;;6.50;5.90;;;9.50;99.90;;;;;;5055649;28;20274;-80
2022/02/04 05:36:11;;;;;;;5.93;5.43;;;9.50;99.90;;;;;;5055084;28;20167;-78
2022/02/04 05:38:39;;;;;;;5.15;4.65;;;9.40;99.90;;;;;;5056257;28;20187;-81
2022/02/04 05:41:07;;;;;;;6.80;6.20;;;9.30;99.90;;;;;;5056258;28;20164;-81
2022/02/04 05:43:35;;;;;;;5.72;5.22;;;9.30;99.90;;;;;;5055512;28;20270;-91
2022/02/04 05:46:11;;;;;;;5.55;5.07;;;9.10;99.90;;;;;;5055011;28;20173;-79
2022/02/04 05:48:40;;;;;;;5.53;4.85;;;9.10;99.90;;;;;;5055462;28;20181;-78
2022/02/04 05:53:42;;;;;;;6.30;5.70;;;8.80;99.90;;;;;;5055089;28;20274;-78
2022/02/04 05:59:05;;;;;;;6.72;6.10;;;9.10;99.90;;;;;;5055908;28;20225;-91
2022/02/04 06:05:06;;;;;;;6.82;6.03;;;9.10;99.90;;;;;;5054706;28;20210;-78
2022/02/04 06:23:07;;;;;;;6.43;5.50;;;9.10;99.90;;;;;;5054085;28;20305;-78
2022/02/04 06:25:33;;;;;;;5.45;4.95;;;9.10;99.90;;;;;;5054993;28;20627;-79
2022/02/04 06:27:59;;;;;;;7.40;6.72;;;9.10;99.90;;;;;;5053023;28;20194;-83
2022/02/04 06:30:24;;;;;;;5.90;5.40;;;9.10;99.90;;;;;;5053915;28;20179;-84
2022/02/04 06:32:50;;;;;;;6.35;5.75;;;9.00;99.90;;;;;;5053637;28;20197;-78
2022/02/04 06:35:16;;;;;;;5.78;5.28;;;8.80;99.90;;;;;;5053938;28;20188;-78
2022/02/04 06:37:41;;;;;;;5.40;4.90;;;8.80;99.90;;;;;;5054464;28;20267;-93
2022/02/04 06:40:08;;;;;;;5.78;5.18;;;8.90;99.90;;;;;;5053995;28;20155;-78
2022/02/04 06:42:34;;;;;;;5.55;5.05;;;8.80;99.90;;;;;;5054476;28;20202;-86
2022/02/04 06:45:00;;;;;;;5.85;5.25;;;8.70;99.90;;;;;;5054598;28;20167;-79
2022/02/04 06:47:27;;;;;;;15.07;6.18;;;8.70;99.90;;;;;;5056030;28;20182;-79
2022/02/04 06:49:53;;;;;;;5.78;5.28;;;8.90;99.90;;;;;;5053715;28;20164;-79
2022/02/04 06:52:19;;;;;;;6.03;4.70;;;8.90;99.90;;;;;;5053948;28;20597;-84
2022/02/04 06:54:44;;;;;;;5.03;4.63;;;8.80;99.90;;;;;;5054019;28;20175;-81
2022/02/04 06:57:10;;;;;;;5.85;5.18;;;8.70;99.90;;;;;;5053598;28;20175;-77
2022/02/04 06:59:38;;;;;;;5.22;4.82;;;8.60;99.90;;;;;;5053999;28;20194;-85
2022/02/04 07:02:04;;;;;;;5.38;4.88;;;8.60;99.90;;;;;;5053313;28;20226;-78
2022/02/04 07:04:33;;;;;;;7.53;4.18;;;8.70;99.90;;;;;;5052527;28;20175;-79
2022/02/04 07:07:00;;;;;;;9.65;4.93;;;8.90;99.90;;;;;;5053767;28;20163;-78
2022/02/04 07:09:41;;;;;;;4.80;4.13;;;8.90;99.90;;;;;;5053901;28;20183;-89
2022/02/04 07:20:20;;;;;;;4.10;3.70;;;9.00;99.90;;;;;;5044337;28;20182;-82
2022/02/04 07:22:46;;;;;;;4.43;4.03;;;8.90;99.90;;;;;;5053667;28;20536;-78
2022/02/04 07:25:12;;;;;;;4.55;3.65;;;8.90;99.90;;;;;;5053546;28;20266;-79
2022/02/04 07:27:39;;;;;;;4.65;4.25;;;8.90;99.90;;;;;;5052831;28;20174;-89
2022/02/04 07:30:06;;;;;;;4.88;4.43;;;9.00;99.90;;;;;;5052862;28;20167;-86
2022/02/04 07:42:58;;;;;;;7.07;5.20;;;8.90;99.90;;;;;;5056551;28;20241;-78
2022/02/04 07:45:24;;;;;;;5.35;3.83;;;8.90;99.90;;;;;;5055503;28;20179;-93
2022/02/04 07:47:50;;;;;;;6.53;4.07;;;8.90;99.90;;;;;;5053875;28;20550;-88
2022/02/04 07:50:20;;;;;;;3.67;3.38;;;9.00;99.90;;;;;;5053102;28;21151;-83
2022/02/04 07:52:47;;;;;;;4.20;3.65;;;9.10;99.90;;;;;;5053088;28;20321;-81
2022/02/04 07:55:12;;;;;;;4.90;3.70;;;9.10;99.90;;;;;;5052867;28;20159;-86
2022/02/04 07:57:39;;;;;;;4.78;3.83;;;9.20;99.90;;;;;;5043266;28;20520;-78
2022/02/04 08:00:09;;;;;;;4.53;4.13;;;9.10;99.90;;;;;;5046614;28;20177;-79
2022/02/04 08:02:34;;;;;;;3.95;3.65;;;9.10;99.90;;;;;;5049313;28;20190;-78
2022/02/04 08:05:04;;;;;;;4.28;3.88;;;9.10;99.90;;;;;;5047943;28;20179;-79
2022/02/04 08:07:37;;;;;;;4.10;3.67;;;9.10;99.90;;;;;;5046576;28;20199;-86
2022/02/04 08:10:22;;;;;;;4.85;4.18;;;9.10;99.90;;;;;;5051184;28;21372;-83
2022/02/04 08:23:18;;;;;;;4.60;4.00;;;9.20;99.90;;;;;;5057439;28;20578;-76
2022/02/04 08:31:26;;;;;;;6.35;4.60;;;9.60;99.90;;;;;;5063480;28;20210;-79
2022/02/04 08:36:57;;;;;;;6.03;4.88;;;9.40;99.90;;;;;;5042861;28;20179;-92
2022/02/04 08:54:50;;;;;;;242.10;28.88;;;9.50;99.90;;;;;;5057341;28;20172;-80
2022/02/04 08:57:28;;;;;;;5.68;4.68;;;9.60;99.90;;;;;;5055973;28;20171;-92
2022/02/04 09:00:11;;;;;;;6.68;4.88;;;9.50;99.90;;;;;;5055123;28;20226;-86
2022/02/04 09:02:40;;;;;;;5.63;4.82;;;9.50;99.90;;;;;;5054749;28;20194;-84
2022/02/04 09:05:11;;;;;;;7.78;5.03;;;9.50;99.90;;;;;;5055030;28;20216;-78
2022/02/04 09:10:24;;;;;;;5.20;4.70;;;9.80;99.90;;;;;;5053413;28;20279;-78
2022/02/04 09:21:13;;;;;;;6.28;4.38;;;9.60;99.90;;;;;;5054477;28;20229;-83
2022/02/04 09:23:39;;;;;;;4.50;4.10;;;9.60;99.90;;;;;;5051748;28;20210;-83
2022/02/04 09:26:07;;;;;;;15.60;5.55;;;9.70;99.90;;;;;;5054541;28;20528;-78
2022/02/04 09:28:34;;;;;;;5.65;3.97;;;9.70;99.90;;;;;;5050754;28;20167;-93
2022/02/04 09:31:00;;;;;;;14.20;4.70;;;9.70;99.90;;;;;;5048944;28;20321;-82
2022/02/04 09:33:25;;;;;;;3.60;3.20;;;9.80;99.90;;;;;;5053374;28;20217;-91
2022/02/04 09:35:51;;;;;;;5.63;3.63;;;9.70;99.90;;;;;;5051138;28;20174;-78
2022/02/04 09:38:18;;;;;;;4.15;3.75;;;9.70;99.90;;;;;;5050633;28;20211;-92
2022/02/04 09:40:43;;;;;;;4.93;2.95;;;9.90;99.90;;;;;;5054191;28;20566;-89
2022/02/04 09:43:09;;;;;;;9.35;3.45;;;9.90;99.90;;;;;;5053952;28;20193;-82
2022/02/04 09:45:37;;;;;;;3.08;2.75;;;9.90;99.90;;;;;;5054291;28;20210;-80
2022/02/04 09:48:06;;;;;;;6.10;3.25;;;10.00;99.90;;;;;;5048186;28;20213;-78
2022/02/04 09:50:36;;;;;;;3.88;3.00;;;10.20;99.90;;;;;;5054795;28;20253;-92
2022/02/04 10:15:29;;;;;;;3.60;3.30;;;10.70;99.90;;;;;;5046889;28;20175;-84
2022/02/04 10:18:08;;;;;;;3.97;3.50;;;10.70;99.90;;;;;;5033944;28;20168;-92
2022/02/04 10:20:34;;;;;;;3.80;3.40;;;10.80;99.90;;;;;;5033940;28;20172;-87
2022/02/04 10:23:01;;;;;;;4.88;3.10;;;10.70;99.90;;;;;;5032397;28;20238;-83
2022/02/04 10:25:32;;;;;;;4.10;3.50;;;10.70;99.90;;;;;;5032816;28;20283;-93
2022/02/04 10:28:03;;;;;;;3.60;2.83;;;10.60;99.90;;;;;;5033305;28;20249;-79
2022/02/04 10:30:32;;;;;;;3.30;3.00;;;10.40;99.90;;;;;;5037702;28;20198;-82
2022/02/04 10:32:58;;;;;;;3.72;3.42;;;10.30;99.90;;;;;;5051051;28;20643;-76
2022/02/04 10:35:34;;;;;;;13.20;4.40;;;10.00;99.90;;;;;;5051597;28;20193;-81
2022/02/04 10:40:47;;;;;;;15.27;5.20;;;9.90;99.90;;;;;;5052101;28;20179;-78
2022/02/04 10:52:40;;;;;;;5.18;4.47;;;10.20;99.90;;;;;;5044224;28;20218;-91
2022/02/04 10:57:20;;;;;;;4.85;4.43;;;10.20;99.90;;;;;;5053222;28;20175;-93
2022/02/04 11:00:08;;;;;;;4.55;4.15;;;10.30;99.90;;;;;;5053029;28;20174;-83
2022/02/04 11:32:47;;;;;;;4.47;3.05;;;10.10;99.90;;;;;;5052674;28;20217;-90
2022/02/04 11:35:12;;;;;;;4.00;3.47;;;10.10;99.90;;;;;;5056026;28;20259;-79
2022/02/04 11:43:58;;;;;;;6.88;3.88;;;10.30;99.90;;;;;;5056833;28;20205;-90
2022/02/04 11:55:00;;;;;;;5.28;4.05;;;10.40;99.90;;;;;;5056195;28;20180;-78
2022/02/04 11:57:28;;;;;;;4.43;3.63;;;10.50;99.90;;;;;;5057059;28;20171;-80
2022/02/04 11:59:53;;;;;;;7.18;4.25;;;10.50;99.90;;;;;;5056765;28;20250;-81
2022/02/04 12:02:25;;;;;;;8.73;4.00;;;10.50;99.90;;;;;;5056968;28;20261;-79
2022/02/04 12:05:11;;;;;;;5.78;3.88;;;10.50;99.90;;;;;;5056331;28;20182;-93
2022/02/04 12:07:53;;;;;;;5.00;3.58;;;10.60;99.90;;;;;;5052947;28;20167;-93
2022/02/04 12:10:20;;;;;;;4.20;3.80;;;10.70;99.90;;;;;;5048126;28;20171;-77
2022/02/04 12:12:59;;;;;;;8.45;3.75;;;10.80;99.90;;;;;;5072516;22;20263;-79
2022/02/04 12:15:28;;;;;;;5.65;2.72;;;10.80;99.90;;;;;;5057525;28;20230;-83
2022/02/04 12:17:54;;;;;;;5.35;3.00;;;10.90;99.90;;;;;;5039686;28;20172;-82
2022/02/04 12:23:26;;;;;;;4.13;2.53;;;11.00;99.90;;;;;;5071602;28;20186;-82
2022/02/04 12:26:12;;;;;;;2.97;2.35;;;11.00;99.90;;;;;;5077622;28;20173;-84
2022/02/04 12:28:53;;;;;;;4.00;2.80;;;11.00;99.90;;;;;;5060876;28;20227;-85
2022/02/04 12:31:26;;;;;;;11.43;2.95;;;10.90;99.90;;;;;;5079524;28;20202;-84
2022/02/04 12:33:56;;;;;;;4.30;3.17;;;10.80;99.90;;;;;;5078848;28;20194;-84
2022/02/04 12:36:46;;;;;;;4.03;2.90;;;10.80;99.90;;;;;;5079194;28;20399;-83
2022/02/04 12:39:17;;;;;;;3.67;3.10;;;10.90;99.90;;;;;;5079870;28;20166;-84
2022/02/04 12:41:48;;;;;;;5.03;3.03;;;10.90;99.90;;;;;;5078437;28;20784;-84
2022/02/04 12:44:20;;;;;;;5.28;2.97;;;10.90;99.90;;;;;;5075946;28;20167;-85
2022/02/04 12:46:48;;;;;;;10.35;3.38;;;11.00;99.90;;;;;;5077075;28;20529;-83
2022/02/04 12:49:22;;;;;;;3.83;2.42;;;11.10;99.90;;;;;;5077590;28;20174;-84
2022/02/04 12:51:59;;;;;;;6.13;2.45;;;11.10;99.90;;;;;;5076938;28;20209;-85
2022/02/04 12:54:30;;;;;;;3.38;2.28;;;11.20;99.90;;;;;;5063967;28;20175;-84
2022/02/04 13:10:31;;;;;;;8.90;1.48;;;10.80;99.90;;;;;;5077631;28;20206;-84
2022/02/04 13:13:14;;;;;;;5.68;1.42;;;10.70;99.90;;;;;;5056827;28;20207;-79
2022/02/04 13:15:42;;;;;;;1.75;1.60;;;10.80;99.90;;;;;;5056923;28;20163;-82
2022/02/04 13:18:17;;;;;;;1.63;1.20;;;10.60;99.90;;;;;;5056479;28;20171;-82
2022/02/04 13:20:47;;;;;;;1.38;1.20;;;10.40;99.90;;;;;;5063631;28;20189;-82
2022/02/04 13:23:24;;;;;;;1.70;1.30;;;10.10;99.90;;;;;;5056958;28;20187;-85
2022/02/04 13:25:52;;;;;;;4.07;1.30;;;10.00;99.90;;;;;;5056250;28;20175;-85
2022/02/04 13:28:26;;;;;;;1.98;1.02;;;10.00;99.90;;;;;;5066469;28;20182;-85
2022/02/04 13:31:01;;;;;;;9.35;1.35;;;10.00;99.90;;;;;;5073026;28;20206;-84
2022/02/04 13:33:32;;;;;;;11.23;1.95;;;10.00;99.90;;;;;;5057158;28;20265;-85
2022/02/04 13:36:14;;;;;;;0.70;0.70;;;9.90;99.90;;;;;;5076083;28;20170;-82
2022/02/04 13:39:13;;;;;;;0.98;0.88;;;10.00;99.90;;;;;;5058427;28;20253;-91
2022/02/04 13:44:37;;;;;;;1.55;1.02;;;10.00;99.90;;;;;;5055788;28;20620;-82
2022/02/04 13:47:25;;;;;;;1.48;1.00;;;9.80;99.90;;;;;;5057387;28;20168;-86
2022/02/04 13:53:12;;;;;;;2.25;1.30;;;9.40;99.90;;;;;;5055926;28;21278;-85
2022/02/04 14:03:17;;;;;;;1.10;1.00;;;9.50;99.90;;;;;;5076056;28;20182;-84
2022/02/04 14:05:53;;;;;;;2.95;1.17;;;9.40;99.90;;;;;;5056008;28;20228;-80
2022/02/04 14:08:30;;;;;;;4.13;1.38;;;9.40;99.90;;;;;;5055455;28;20166;-83
2022/02/04 14:10:58;;;;;;;2.72;1.42;;;9.40;99.90;;;;;;5042078;28;20222;-84
2022/02/04 14:13:29;;;;;;;2.47;1.10;;;9.40;99.90;;;;;;5074483;28;20256;-86
2022/02/04 14:15:58;;;;;;;5.60;1.02;;;9.20;99.90;;;;;;5072533;28;20183;-82
2022/02/04 14:18:28;;;;;;;1.30;1.10;;;9.20;99.90;;;;;;5074538;28;20186;-81
2022/02/04 14:20:54;;;;;;;1.77;1.65;;;9.10;99.90;;;;;;5059618;28;20171;-81
2022/02/04 14:23:21;;;;;;;3.72;1.58;;;9.20;99.90;;;;;;5055674;28;20186;-80
2022/02/04 14:26:07;;;;;;;1.23;1.10;;;9.30;99.90;;;;;;5074226;28;20744;-83
2022/02/04 14:28:58;;;;;;;1.42;1.33;;;9.30;99.90;;;;;;5055975;28;20509;-84
2022/02/04 14:52:28;;;;;;;1.42;0.80;;;7.00;99.90;;;;;;5054089;28;20221;-79
2022/02/04 15:00:35;;;;;;;0.70;0.70;;;6.80;99.90;;;;;;5090159;28;20161;-80
2022/02/04 15:03:25;;;;;;;0.68;0.43;;;6.80;99.90;;;;;;5088482;28;20206;-79
2022/02/04 15:06:01;;;;;;;8.30;0.60;;;6.70;99.90;;;;;;5091423;28;20151;-81
2022/02/04 15:08:28;;;;;;;1.73;0.63;;;6.80;99.90;;;;;;5061518;28;20241;-85
2022/02/04 15:10:55;;;;;;;19.88;1.63;;;6.80;99.90;;;;;;5064790;28;20573;-81
2022/02/04 15:13:20;;;;;;;1.55;1.20;;;6.90;99.90;;;;;;5070930;28;20290;-83
2022/02/04 15:15:46;;;;;;;2.65;0.95;;;6.90;99.90;;;;;;5073880;28;20151;-77
2022/02/04 15:18:12;;;;;;;4.78;0.68;;;6.80;99.90;;;;;;5073820;28;20171;-79
2022/02/04 15:20:39;;;;;;;0.80;0.57;;;6.80;99.90;;;;;;5074413;28;20215;-84
2022/02/04 15:23:06;;;;;;;0.82;0.82;;;6.90;99.90;;;;;;5093546;28;20201;-78
2022/02/04 15:25:32;;;;;;;4.78;2.15;;;6.80;99.90;;;;;;5093153;28;20147;-79
2022/02/04 15:30:40;;;;;;;2.28;1.27;;;6.80;99.90;;;;;;5078054;28;20252;-85
2022/02/04 15:33:06;;;;;;;2.13;0.98;;;6.90;99.90;;;;;;5058078;28;20529;-85
2022/02/04 15:35:32;;;;;;;0.52;0.50;;;6.80;99.90;;;;;;5057068;28;20659;-85
2022/02/04 15:37:57;;;;;;;1.00;0.70;;;6.70;99.90;;;;;;5057579;28;20175;-84
2022/02/04 15:40:23;;;;;;;0.50;0.40;;;6.70;99.90;;;;;;5058130;28;20220;-86
2022/02/04 15:42:57;;;;;;;2.13;0.70;;;6.70;99.90;;;;;;5056886;28;20193;-83
2022/02/04 15:51:32;;;;;;;2.08;0.77;;;6.50;99.90;;;;;;5055388;28;20670;-84
2022/02/04 16:05:58;;;;;;;2.53;1.88;;;6.70;99.90;;;;;;5074780;28;20202;-81
2022/02/04 16:08:24;;;;;;;3.00;0.75;;;6.70;99.90;;;;;;5065715;28;20175;-84
2022/02/04 16:11:10;;;;;;;4.35;0.70;;;6.60;99.90;;;;;;5037399;28;20272;-84
2022/02/04 16:13:44;;;;;;;2.38;1.00;;;6.60;99.90;;;;;;5052781;28;20206;-82
2022/02/04 16:18:59;;;;;;;6.43;4.13;;;6.50;99.90;;;;;;5054413;28;20175;-83
2022/02/04 16:22:02;;;;;;;2.15;1.80;;;6.60;99.90;;;;;;5058221;28;20167;-81
2022/02/04 16:29:14;;;;;;;5.28;0.93;;;6.40;99.90;;;;;;5057661;28;20183;-81
2022/02/04 16:31:40;;;;;;;4.45;2.40;;;6.40;99.90;;;;;;5055118;28;20217;-81
2022/02/04 16:34:09;;;;;;;16.52;4.00;;;6.40;99.90;;;;;;5064623;28;20170;-82
2022/02/04 16:36:40;;;;;;;9.30;1.67;;;6.50;99.90;;;;;;5075343;28;20163;-81
2022/02/04 16:39:08;;;;;;;4.53;1.40;;;6.40;99.90;;;;;;5077369;28;20194;-81
2022/02/04 16:41:48;;;;;;;5.55;1.20;;;6.50;99.90;;;;;;5077139;28;20191;-81
2022/02/04 16:44:14;;;;;;;3.40;1.30;;;6.50;99.90;;;;;;5076950;28;20686;-80
2022/02/04 16:46:40;;;;;;;7.97;1.13;;;6.50;99.90;;;;;;5077453;28;20197;-81
2022/02/04 16:49:07;;;;;;;3.47;1.10;;;6.60;99.90;;;;;;5076417;28;20159;-82
2022/02/04 16:51:33;;;;;;;3.70;1.45;;;6.50;99.90;;;;;;5076663;28;20570;-83
2022/02/04 16:53:58;;;;;;;9.00;1.42;;;6.30;99.90;;;;;;5059219;28;20159;-82
2022/02/04 16:56:24;;;;;;;4.60;1.52;;;6.10;99.90;;;;;;5076690;28;20202;-82
2022/02/04 16:58:50;;;;;;;3.72;2.08;;;6.00;99.90;;;;;;5077080;28;20505;-83
2022/02/04 17:01:17;;;;;;;10.73;3.88;;;6.00;99.90;;;;;;5076828;28;20178;-82
2022/02/04 17:03:43;;;;;;;11.82;6.97;;;6.00;99.90;;;;;;5076459;28;20181;-79
2022/02/04 17:06:10;;;;;;;4.32;3.00;;;5.90;99.90;;;;;;5076305;28;20166;-81
2022/02/04 17:08:46;;;;;;;9.15;2.05;;;6.00;99.90;;;;;;5076738;28;20577;-82
2022/02/04 17:11:15;;;;;;;6.78;2.63;;;6.10;99.90;;;;;;5075925;28;20265;-82
2022/02/04 17:13:41;;;;;;;4.50;3.45;;;6.10;99.90;;;;;;5076189;28;20562;-80
2022/02/04 17:16:08;;;;;;;7.00;2.03;;;6.00;99.90;;;;;;5076710;28;20163;-83
2022/02/04 17:18:35;;;;;;;4.93;2.20;;;6.10;99.90;;;;;;5076637;28;20684;-80
2022/02/04 17:21:01;;;;;;;9.30;1.80;;;6.10;99.90;;;;;;5058045;28;20158;-84
2022/02/04 17:23:40;;;;;;;6.07;2.70;;;6.20;99.90;;;;;;5075558;28;20183;-81
2022/02/04 17:26:05;;;;;;;7.47;2.78;;;6.30;99.90;;;;;;5076223;28;20173;-81
2022/02/04 17:28:31;;;;;;;11.20;2.42;;;6.40;99.90;;;;;;5075769;28;20166;-82
2022/02/04 17:30:58;;;;;;;10.70;2.83;;;6.30;99.90;;;;;;5075161;28;20194;-81
2022/02/04 17:33:25;;;;;;;3.53;1.90;;;6.30;99.90;;;;;;5058368;28;20196;-82
2022/02/04 17:35:52;;;;;;;8.70;2.30;;;6.40;99.90;;;;;;5074866;28;20247;-81
2022/02/04 17:38:18;;;;;;;11.13;3.35;;;6.40;99.90;;;;;;5056212;28;20178;-80
2022/02/04 17:40:43;;;;;;;6.53;2.80;;;6.40;99.90;;;;;;5074443;28;20622;-80
2022/02/04 17:43:10;;;;;;;5.40;2.00;;;6.50;99.90;;;;;;5074361;28;20212;-79
2022/02/04 17:45:37;;;;;;;10.55;2.22;;;6.40;99.90;;;;;;5074138;28;20159;-83
2022/02/04 17:50:33;;;;;;;7.70;2.03;;;6.50;99.90;;;;;;5073785;28;20171;-82
2022/02/04 17:53:12;;;;;;;5.72;2.10;;;6.50;99.90;;;;;;5061622;28;20209;-81
2022/02/04 17:55:47;;;;;;;7.85;2.42;;;6.40;99.90;;;;;;5073351;28;20166;-82
2022/02/04 17:58:24;;;;;;;12.73;4.70;;;6.40;99.90;;;;;;5073942;28;20471;-79
2022/02/04 18:06:54;;;;;;;9.38;2.70;;;6.40;99.90;;;;;;5042873;28;20189;-84
2022/02/04 18:09:10;;;;;;;14.98;2.38;;;6.60;99.90;;;;;;5073706;28;20171;-82
2022/02/04 18:11:35;;;;;;;6.72;2.45;;;6.60;99.90;;;;;;5074494;28;20202;-82
2022/02/04 18:14:01;;;;;;;7.13;2.15;;;6.50;99.90;;;;;;5055997;28;20256;-82
2022/02/04 18:16:26;;;;;;;3.97;2.50;;;6.50;99.90;;;;;;5056134;28;20167;-84
2022/02/04 18:18:52;;;;;;;7.80;2.85;;;6.30;99.90;;;;;;5073635;28;20165;-81
2022/02/04 18:21:19;;;;;;;11.82;2.95;;;6.30;99.90;;;;;;5074123;28;20534;-83
2022/02/04 18:23:45;;;;;;;7.18;2.65;;;6.30;99.90;;;;;;5074030;28;21040;-78
2022/02/04 18:26:11;;;;;;;7.93;1.83;;;6.30;99.90;;;;;;5055948;28;20167;-81
2022/02/04 18:28:37;;;;;;;14.25;2.92;;;6.20;99.90;;;;;;5055509;28;20697;-83
2022/02/04 18:31:03;;;;;;;14.63;2.30;;;6.10;99.90;;;;;;5073431;28;20195;-84
2022/02/04 18:33:28;;;;;;;17.92;2.42;;;6.10;99.90;;;;;;5073435;28;20236;-83
2022/02/04 18:36:00;;;;;;;7.25;2.28;;;6.10;99.90;;;;;;5073582;28;20619;-84
2022/02/04 18:41:22;;;;;;;7.28;1.80;;;6.20;99.90;;;;;;5073675;28;20170;-83
2022/02/04 18:43:52;;;;;;;6.75;3.13;;;6.30;99.90;;;;;;5072145;28;20202;-82
2022/02/04 18:48:51;;;;;;;10.40;2.70;;;6.40;99.90;;;;;;5073232;28;20475;-81
2022/02/04 18:51:47;;;;;;;6.28;3.75;;;6.50;99.90;;;;;;5073274;28;20689;-82
2022/02/04 18:59:29;;;;;;;6.07;2.88;;;6.40;99.90;;;;;;5073505;28;20273;-83
2022/02/04 19:01:55;;;;;;;5.93;2.78;;;6.50;99.90;;;;;;5073281;28;20239;-81
2022/02/04 19:04:30;;;;;;;8.50;3.25;;;6.40;99.90;;;;;;5073231;28;20171;-81
2022/02/04 19:07:11;;;;;;;10.70;3.10;;;6.40;99.90;;;;;;5072991;28;20596;-83
2022/02/04 19:09:39;;;;;;;5.20;2.63;;;6.30;99.90;;;;;;5072520;28;20197;-81
2022/02/04 19:12:11;;;;;;;15.70;3.60;;;6.40;99.90;;;;;;5072937;28;20214;-82
2022/02/04 19:14:49;;;;;;;10.32;3.22;;;6.20;99.90;;;;;;5072981;28;20167;-83
2022/02/04 19:17:28;;;;;;;7.47;3.13;;;6.30;99.90;;;;;;5072437;28;20162;-85
2022/02/04 19:20:01;;;;;;;10.52;2.65;;;6.50;99.90;;;;;;5072433;28;20200;-83
2022/02/04 19:22:33;;;;;;;5.05;2.88;;;6.40;99.90;;;;;;5054272;28;20544;-86
2022/02/04 19:25:03;;;;;;;5.97;3.03;;;6.30;99.90;;;;;;5072338;28;20628;-82
2022/02/04 19:27:29;;;;;;;8.93;2.65;;;6.20;99.90;;;;;;5073179;28;20236;-83
2022/02/04 19:29:55;;;;;;;7.85;2.50;;;6.20;99.90;;;;;;5072980;28;20611;-83
2022/02/04 19:32:22;;;;;;;8.45;2.55;;;6.20;99.90;;;;;;5073348;28;20210;-84
2022/02/04 19:34:48;;;;;;;5.70;2.53;;;6.30;99.90;;;;;;5073395;28;20186;-83
2022/02/04 19:37:14;;;;;;;8.48;3.13;;;6.40;99.90;;;;;;5055671;28;20201;-83
2022/02/04 19:39:43;;;;;;;8.70;2.72;;;6.30;99.90;;;;;;5054890;28;20694;-84
2022/02/04 19:42:30;;;;;;;2.78;1.95;;;6.20;99.90;;;;;;5073255;28;20273;-84
2022/02/04 19:45:00;;;;;;;7.03;2.75;;;6.30;99.90;;;;;;5072965;28;20167;-84
2022/02/04 19:47:34;;;;;;;10.55;3.38;;;6.40;99.90;;;;;;5055192;28;20611;-84
2022/02/04 19:52:41;;;;;;;6.43;3.15;;;6.50;99.90;;;;;;5073757;28;20215;-85
2022/02/04 20:25:13;;;;;;;6.25;2.28;;;6.80;99.90;;;;;;5077434;28;20197;-84
2022/02/04 20:27:41;;;;;;;2.95;2.08;;;6.90;99.90;;;;;;5058302;28;20171;-85
2022/02/04 20:30:12;;;;;;;10.05;2.47;;;6.90;99.90;;;;;;5075970;28;20523;-82
2022/02/04 20:32:39;;;;;;;2.90;2.00;;;6.80;99.90;;;;;;5076092;28;20281;-85
2022/02/04 20:35:05;;;;;;;4.97;2.60;;;6.90;99.90;;;;;;5057977;28;20159;-81
2022/02/04 20:37:31;;;;;;;3.88;2.40;;;6.90;99.90;;;;;;5075773;28;20178;-80
2022/02/04 20:40:11;;;;;;;6.32;2.30;;;7.00;99.90;;;;;;5075435;28;20166;-79